Time;durP1;ratioP1;P1;durP2;ratioP2;P2;SDS_P1;SDS_P2;PMS_P1;PMS_P2;Temp;Humidity;BMP_temperature;BMP_pressure;BME280_temperature;BME280_humidity;BME280_pressure;Samples;Min_cycle;Max_cycle;Signal;HPM_P1;HPM_P2
2022/04/20 00:00:36;;;;;;;0.40;0.30;;;10.80;83.70;;;;;;5011696;28;20381;-67
2022/04/20 00:03:03;;;;;;;0.40;0.20;;;10.80;83.80;;;;;;5013261;28;20385;-67
2022/04/20 00:05:33;;;;;;;0.40;0.20;;;10.80;82.50;;;;;;5012652;28;20569;-68
2022/04/20 00:08:00;;;;;;;0.40;0.20;;;10.90;82.30;;;;;;5013287;28;20400;-67
2022/04/20 00:10:27;;;;;;;0.40;0.20;;;11.10;80.80;;;;;;5012212;28;20484;-67
2022/04/20 00:12:52;;;;;;;0.40;0.20;;;11.20;80.10;;;;;;5011700;28;20385;-67
2022/04/20 00:15:18;;;;;;;0.40;0.30;;;11.20;79.50;;;;;;5012739;28;20380;-67
2022/04/20 00:17:43;;;;;;;0.40;0.20;;;11.20;79.70;;;;;;5012142;28;20381;-67
2022/04/20 00:20:10;;;;;;;0.70;0.70;;;11.20;79.00;;;;;;5012861;28;20387;-67
2022/04/20 00:22:35;;;;;;;0.40;0.20;;;11.40;79.10;;;;;;5010770;28;21007;-67
2022/04/20 00:25:01;;;;;;;0.40;0.40;;;11.50;76.80;;;;;;5012571;28;20385;-68
2022/04/20 00:27:27;;;;;;;0.40;0.30;;;11.50;76.40;;;;;;5012617;28;20789;-67
2022/04/20 00:29:52;;;;;;;0.40;0.30;;;11.50;76.60;;;;;;5011866;28;20580;-67
2022/04/20 00:32:18;;;;;;;0.40;0.20;;;11.60;75.80;;;;;;5025820;28;20509;-68
2022/04/20 00:34:43;;;;;;;0.40;0.20;;;11.60;75.60;;;;;;5031611;28;20380;-68
2022/04/20 00:37:09;;;;;;;0.40;0.20;;;11.50;75.40;;;;;;5032528;28;20395;-68
2022/04/20 00:39:37;;;;;;;0.40;0.20;;;11.40;76.00;;;;;;5032160;28;20872;-67
2022/04/20 00:42:04;;;;;;;0.52;0.52;;;11.40;75.80;;;;;;5030732;28;20508;-68
2022/04/20 00:44:29;;;;;;;0.40;0.30;;;11.40;75.00;;;;;;5032262;28;20387;-68
2022/04/20 00:46:56;;;;;;;0.40;0.30;;;11.50;75.70;;;;;;5031434;28;20387;-68
2022/04/20 00:49:23;;;;;;;0.40;0.20;;;11.40;74.80;;;;;;5032273;28;20442;-67
2022/04/20 00:51:58;;;;;;;0.40;0.30;;;11.30;75.30;;;;;;5031950;28;20394;-67
2022/04/20 00:54:24;;;;;;;0.40;0.22;;;11.30;75.20;;;;;;5032190;28;20387;-68
2022/04/20 00:56:50;;;;;;;0.40;0.20;;;11.40;75.50;;;;;;5031656;28;20726;-67
2022/04/20 00:59:20;;;;;;;0.40;0.30;;;11.30;75.30;;;;;;5031603;28;20445;-67
2022/04/20 01:01:46;;;;;;;0.40;0.30;;;11.30;74.80;;;;;;5031866;28;20415;-67
2022/04/20 01:04:12;;;;;;;0.40;0.30;;;11.30;74.80;;;;;;5031372;28;20383;-68
2022/04/20 01:06:38;;;;;;;0.40;0.20;;;11.30;74.40;;;;;;5031610;28;20422;-68
2022/04/20 01:09:04;;;;;;;0.40;0.20;;;11.30;73.50;;;;;;5030993;28;20429;-68
2022/04/20 01:11:30;;;;;;;0.40;0.20;;;11.30;73.50;;;;;;5031816;28;20445;-67
2022/04/20 01:13:55;;;;;;;0.40;0.30;;;11.30;73.70;;;;;;5031993;28;20421;-67
2022/04/20 01:16:21;;;;;;;0.40;0.20;;;11.40;73.00;;;;;;5030966;28;20494;-68
2022/04/20 01:18:50;;;;;;;0.40;0.20;;;11.40;72.20;;;;;;5031582;28;20848;-68
2022/04/20 01:21:15;;;;;;;0.40;0.20;;;11.30;73.60;;;;;;5030639;28;20414;-67
2022/04/20 01:23:42;;;;;;;0.40;0.20;;;11.30;72.80;;;;;;5031637;28;20383;-68
2022/04/20 01:26:08;;;;;;;0.40;0.20;;;11.30;73.10;;;;;;5031623;28;20748;-67
2022/04/20 01:28:36;;;;;;;0.40;0.20;;;11.30;72.50;;;;;;5030915;28;20383;-67
2022/04/20 01:31:02;;;;;;;0.40;0.30;;;11.20;73.60;;;;;;5028519;28;20423;-67
2022/04/20 01:33:28;;;;;;;0.40;0.20;;;11.20;73.20;;;;;;5011013;28;20396;-68
2022/04/20 01:35:54;;;;;;;0.40;0.20;;;11.20;72.40;;;;;;5011385;28;21014;-68
2022/04/20 01:38:20;;;;;;;0.40;0.20;;;11.20;73.30;;;;;;5010800;28;20409;-70
2022/04/20 01:40:46;;;;;;;0.60;0.60;;;11.20;73.50;;;;;;5010109;28;20913;-68
2022/04/20 01:43:12;;;;;;;0.40;0.30;;;11.20;72.70;;;;;;5011194;28;20688;-67
2022/04/20 01:45:37;;;;;;;0.40;0.20;;;11.20;72.60;;;;;;5010417;28;20392;-67
2022/04/20 01:48:03;;;;;;;0.40;0.30;;;11.10;73.00;;;;;;5011668;28;20389;-68
2022/04/20 01:50:29;;;;;;;0.40;0.20;;;11.00;72.80;;;;;;5010553;28;20377;-68
2022/04/20 01:52:55;;;;;;;0.60;0.60;;;10.90;72.70;;;;;;5011071;28;20381;-67
2022/04/20 01:55:21;;;;;;;0.40;0.30;;;10.90;73.60;;;;;;5011156;28;20857;-67
2022/04/20 01:57:47;;;;;;;0.40;0.30;;;10.90;72.70;;;;;;5010298;28;20424;-67
2022/04/20 02:00:13;;;;;;;0.40;0.20;;;10.80;74.40;;;;;;5011116;28;20861;-68
2022/04/20 02:02:39;;;;;;;0.40;0.20;;;10.70;74.50;;;;;;5009050;28;20897;-67
2022/04/20 02:05:07;;;;;;;0.40;0.20;;;10.60;75.20;;;;;;5011028;28;20439;-67
2022/04/20 02:07:33;;;;;;;0.40;0.20;;;10.60;74.70;;;;;;5011529;28;20424;-67
2022/04/20 02:09:59;;;;;;;0.40;0.20;;;10.60;77.00;;;;;;5010220;28;20822;-67
2022/04/20 02:12:25;;;;;;;0.40;0.30;;;10.50;74.90;;;;;;5010812;28;20854;-67
2022/04/20 02:14:51;;;;;;;0.40;0.20;;;10.50;75.40;;;;;;5008856;28;20392;-67
2022/04/20 02:17:17;;;;;;;0.40;0.20;;;10.50;75.70;;;;;;5010890;28;20447;-67
2022/04/20 02:19:42;;;;;;;0.40;0.20;;;10.50;75.40;;;;;;5010617;28;20718;-67
2022/04/20 02:22:08;;;;;;;0.40;0.30;;;10.50;76.20;;;;;;5010226;28;20471;-67
2022/04/20 02:24:34;;;;;;;0.40;0.20;;;10.60;75.40;;;;;;5010973;28;20468;-67
2022/04/20 02:27:00;;;;;;;0.40;0.20;;;10.60;75.10;;;;;;5010734;28;20392;-67
2022/04/20 02:29:26;;;;;;;0.40;0.20;;;10.50;75.20;;;;;;5011110;28;20392;-67
2022/04/20 02:31:51;;;;;;;0.50;0.50;;;10.40;75.40;;;;;;5018455;28;20872;-67
2022/04/20 02:34:17;;;;;;;0.40;0.20;;;10.40;76.40;;;;;;5030603;28;20397;-67
2022/04/20 02:36:43;;;;;;;0.40;0.20;;;10.40;75.70;;;;;;5030082;28;20399;-67
2022/04/20 02:39:08;;;;;;;0.40;0.40;;;10.30;77.00;;;;;;5029187;28;20764;-67
2022/04/20 02:41:37;;;;;;;0.40;0.20;;;10.20;76.60;;;;;;5030253;28;20446;-67
2022/04/20 02:44:06;;;;;;;0.40;0.20;;;10.20;76.60;;;;;;5029584;28;20379;-67
2022/04/20 02:46:32;;;;;;;0.40;0.20;;;10.30;76.80;;;;;;5030267;28;20465;-67
2022/04/20 02:48:58;;;;;;;0.40;0.20;;;10.30;75.80;;;;;;5030212;28;20387;-67
2022/04/20 02:51:24;;;;;;;0.40;0.20;;;10.30;76.20;;;;;;5029525;28;20379;-67
2022/04/20 02:53:50;;;;;;;0.80;0.60;;;10.10;77.00;;;;;;5029224;28;20410;-67
2022/04/20 02:56:15;;;;;;;0.40;0.20;;;10.10;77.00;;;;;;5029402;28;20736;-67
2022/04/20 02:58:41;;;;;;;0.40;0.20;;;10.10;77.00;;;;;;5029137;28;20811;-67
2022/04/20 03:01:06;;;;;;;0.40;0.20;;;10.20;76.90;;;;;;5029763;28;20519;-67
2022/04/20 03:03:33;;;;;;;0.40;0.20;;;10.20;76.30;;;;;;5029463;28;20384;-67
2022/04/20 03:05:59;;;;;;;0.40;0.20;;;10.10;77.20;;;;;;5033364;28;20437;-67
2022/04/20 03:08:24;;;;;;;0.40;0.20;;;10.10;78.30;;;;;;5033224;28;20383;-67
2022/04/20 03:10:51;;;;;;;0.40;0.20;;;10.20;79.10;;;;;;5034257;28;20464;-67
2022/04/20 03:13:18;;;;;;;0.40;0.20;;;10.00;79.00;;;;;;5033149;28;20397;-67
2022/04/20 03:15:44;;;;;;;0.40;0.20;;;10.00;79.00;;;;;;5033701;28;20478;-67
2022/04/20 03:18:10;;;;;;;0.40;0.20;;;9.90;81.00;;;;;;5033941;28;20776;-67
2022/04/20 03:20:36;;;;;;;0.40;0.20;;;9.90;80.40;;;;;;5031576;28;20492;-67
2022/04/20 03:23:02;;;;;;;0.40;0.20;;;9.90;81.70;;;;;;5033971;28;20409;-67
2022/04/20 03:25:28;;;;;;;1.30;0.70;;;9.90;81.50;;;;;;5032968;28;20383;-68
2022/04/20 03:27:54;;;;;;;0.40;0.30;;;9.90;80.90;;;;;;5033547;28;20390;-67
2022/04/20 03:30:20;;;;;;;0.40;0.20;;;9.80;81.00;;;;;;5033565;28;20386;-67
2022/04/20 03:32:46;;;;;;;0.60;0.60;;;9.60;81.80;;;;;;5033069;28;21032;-67
2022/04/20 03:35:11;;;;;;;0.40;0.20;;;9.60;82.30;;;;;;5033721;28;20379;-67
2022/04/20 03:37:37;;;;;;;0.40;0.20;;;9.40;84.30;;;;;;5033129;28;20403;-68
2022/04/20 03:40:08;;;;;;;0.40;0.20;;;9.50;85.20;;;;;;5033894;28;20898;-67
2022/04/20 03:42:34;;;;;;;0.40;0.20;;;9.40;85.10;;;;;;5033121;28;20536;-68
2022/04/20 03:45:00;;;;;;;0.40;0.40;;;9.50;85.70;;;;;;5031799;28;20387;-67
2022/04/20 03:47:25;;;;;;;0.40;0.20;;;9.40;85.50;;;;;;5033255;28;20383;-68
2022/04/20 03:49:51;;;;;;;0.40;0.20;;;9.40;86.80;;;;;;5033050;28;20394;-67
2022/04/20 03:52:17;;;;;;;0.70;0.70;;;9.30;90.60;;;;;;5033612;28;20383;-67
2022/04/20 03:54:42;;;;;;;1.20;0.90;;;9.30;89.00;;;;;;5032681;28;20448;-67
2022/04/20 03:57:10;;;;;;;0.40;0.20;;;9.20;88.40;;;;;;5033255;28;20440;-68
2022/04/20 03:59:37;;;;;;;0.40;0.30;;;9.20;90.00;;;;;;5033424;28;20474;-68
2022/04/20 04:02:05;;;;;;;0.40;0.30;;;9.10;89.40;;;;;;5047178;28;20473;-68
2022/04/20 04:04:31;;;;;;;0.40;0.20;;;9.10;90.30;;;;;;5033080;28;20767;-67
2022/04/20 04:06:57;;;;;;;0.40;0.20;;;9.20;90.40;;;;;;5030849;28;20461;-68
2022/04/20 04:09:23;;;;;;;0.40;0.20;;;9.10;89.80;;;;;;5033110;28;20387;-68
2022/04/20 04:11:50;;;;;;;0.40;0.20;;;9.10;89.30;;;;;;5032698;28;20390;-68
2022/04/20 04:14:17;;;;;;;0.40;0.20;;;9.00;90.70;;;;;;5033286;28;20432;-68
2022/04/20 04:16:43;;;;;;;0.70;0.60;;;9.00;90.80;;;;;;5031647;28;20417;-68
2022/04/20 04:19:09;;;;;;;0.40;0.20;;;9.00;89.80;;;;;;5032174;28;20384;-68
2022/04/20 04:21:36;;;;;;;0.70;0.70;;;9.00;90.40;;;;;;5032798;28;20502;-68
2022/04/20 04:24:03;;;;;;;0.40;0.20;;;9.00;90.70;;;;;;5032125;28;20389;-68
2022/04/20 04:26:30;;;;;;;0.50;0.50;;;9.00;91.50;;;;;;5032799;28;20399;-68
2022/04/20 04:28:56;;;;;;;0.40;0.30;;;9.00;90.80;;;;;;5032750;28;20471;-67
2022/04/20 04:31:22;;;;;;;0.40;0.20;;;9.00;91.00;;;;;;5026303;28;20388;-67
2022/04/20 04:33:47;;;;;;;2.50;0.60;;;8.90;91.00;;;;;;5012659;28;20385;-67
2022/04/20 04:36:13;;;;;;;0.40;0.30;;;9.00;91.90;;;;;;5012019;28;20714;-67
2022/04/20 04:38:39;;;;;;;0.40;0.30;;;9.00;91.00;;;;;;5011486;28;20976;-67
2022/04/20 04:41:04;;;;;;;0.50;0.50;;;9.00;91.00;;;;;;5012642;28;20409;-68
2022/04/20 04:43:30;;;;;;;0.40;0.30;;;9.00;91.60;;;;;;5011962;28;20380;-67
2022/04/20 04:48:40;;;;;;;0.40;0.20;;;8.90;90.90;;;;;;5012363;28;20932;-67
2022/04/20 04:51:07;;;;;;;0.70;0.50;;;8.90;92.20;;;;;;5012550;28;20388;-68
2022/04/20 04:53:33;;;;;;;0.40;0.20;;;8.90;91.30;;;;;;5011789;28;20738;-68
2022/04/20 04:55:59;;;;;;;0.40;0.20;;;8.90;91.40;;;;;;5012477;28;21008;-68
2022/04/20 04:58:24;;;;;;;0.60;0.60;;;8.80;92.10;;;;;;5011951;28;20899;-68
2022/04/20 05:00:50;;;;;;;0.40;0.20;;;8.80;93.70;;;;;;5012447;28;20431;-68
2022/04/20 05:03:16;;;;;;;0.60;0.60;;;8.80;94.00;;;;;;5012075;28;20472;-69
2022/04/20 05:05:46;;;;;;;0.40;0.20;;;8.80;93.80;;;;;;5011515;28;20388;-68
2022/04/20 05:08:12;;;;;;;0.40;0.20;;;8.70;93.30;;;;;;5012403;28;20459;-68
2022/04/20 05:10:37;;;;;;;0.90;0.90;;;8.60;95.30;;;;;;5011180;28;20411;-68
2022/04/20 05:13:04;;;;;;;0.40;0.20;;;8.60;94.90;;;;;;5012321;28;20777;-68
2022/04/20 05:15:30;;;;;;;0.40;0.30;;;8.60;95.40;;;;;;5011187;28;20810;-68
2022/04/20 05:17:56;;;;;;;0.40;0.30;;;8.60;95.60;;;;;;5010740;28;20420;-68
2022/04/20 05:20:21;;;;;;;0.47;0.47;;;8.60;95.90;;;;;;5011788;28;20381;-68
2022/04/20 05:22:48;;;;;;;0.40;0.20;;;8.50;96.50;;;;;;5011103;28;20416;-68
2022/04/20 05:25:13;;;;;;;0.40;0.20;;;8.50;96.30;;;;;;5011689;28;20429;-68
2022/04/20 05:27:39;;;;;;;0.40;0.30;;;8.60;97.60;;;;;;5009351;28;20428;-68
2022/04/20 05:30:07;;;;;;;0.40;0.20;;;8.50;96.50;;;;;;5011842;28;20421;-68
2022/04/20 05:32:33;;;;;;;0.40;0.20;;;8.50;95.10;;;;;;5026683;28;20733;-68
2022/04/20 05:35:01;;;;;;;0.40;0.30;;;8.70;95.00;;;;;;5046364;28;20402;-68
2022/04/20 05:42:56;;;;;;;0.40;0.40;;;8.70;96.10;;;;;;5030288;28;20772;-68
2022/04/20 05:45:22;;;;;;;0.40;0.30;;;8.60;97.30;;;;;;5031354;28;20807;-69
2022/04/20 05:47:48;;;;;;;0.40;0.20;;;8.60;97.20;;;;;;5030470;28;20519;-69
2022/04/20 05:50:14;;;;;;;0.60;0.60;;;8.70;98.10;;;;;;5031265;28;20391;-68
2022/04/20 05:52:40;;;;;;;0.40;0.20;;;8.70;96.60;;;;;;5031426;28;20406;-68
2022/04/20 05:55:06;;;;;;;0.40;0.20;;;8.60;97.30;;;;;;5030810;28;20383;-69
2022/04/20 05:57:33;;;;;;;0.40;0.20;;;8.70;96.10;;;;;;5031642;28;20394;-68
2022/04/20 05:59:59;;;;;;;0.40;0.30;;;8.80;97.00;;;;;;5030043;28;20532;-69
2022/04/20 06:02:25;;;;;;;0.40;0.20;;;8.80;95.00;;;;;;5030925;28;20419;-68
2022/04/20 06:04:51;;;;;;;0.40;0.20;;;8.80;96.40;;;;;;5031000;28;20414;-68
2022/04/20 06:07:17;;;;;;;0.40;0.20;;;8.90;94.50;;;;;;5030268;28;20949;-68
2022/04/20 06:09:43;;;;;;;0.40;0.30;;;8.90;97.40;;;;;;5030761;28;20394;-68
2022/04/20 06:12:09;;;;;;;1.40;0.70;;;9.00;95.50;;;;;;5030218;28;20395;-66
2022/04/20 06:14:34;;;;;;;0.40;0.20;;;9.10;96.40;;;;;;5030975;28;20379;-67
2022/04/20 06:17:00;;;;;;;0.40;0.20;;;9.10;95.80;;;;;;5030891;28;20375;-68
2022/04/20 06:19:26;;;;;;;0.40;0.30;;;9.20;96.90;;;;;;5030520;28;20406;-68
2022/04/20 06:21:51;;;;;;;0.40;0.30;;;9.20;95.00;;;;;;5045993;28;20880;-69
2022/04/20 06:24:17;;;;;;;0.40;0.30;;;9.30;94.60;;;;;;5030085;28;20874;-68
2022/04/20 06:26:43;;;;;;;0.40;0.30;;;9.30;94.10;;;;;;5030893;28;20828;-67
2022/04/20 06:29:08;;;;;;;0.40;0.20;;;9.40;97.20;;;;;;5030216;28;20390;-66
2022/04/20 06:31:35;;;;;;;0.40;0.20;;;9.50;96.60;;;;;;5030813;28;20383;-66
2022/04/20 06:34:02;;;;;;;1.60;0.80;;;9.50;97.90;;;;;;5030759;28;20844;-66
2022/04/20 06:36:28;;;;;;;0.40;0.20;;;9.60;96.50;;;;;;5029928;28;20786;-68
2022/04/20 06:38:54;;;;;;;0.40;0.20;;;9.70;94.30;;;;;;5030869;28;20411;-67
2022/04/20 06:41:20;;;;;;;0.40;0.20;;;9.80;94.40;;;;;;5033566;28;20581;-68
2022/04/20 06:43:46;;;;;;;0.40;0.30;;;9.90;94.20;;;;;;5034716;28;20466;-66
2022/04/20 06:46:11;;;;;;;0.80;0.70;;;10.00;91.40;;;;;;5034542;28;20978;-68
2022/04/20 06:48:37;;;;;;;0.40;0.20;;;10.20;90.60;;;;;;5034097;28;21032;-67
2022/04/20 06:51:03;;;;;;;0.40;0.20;;;10.20;91.90;;;;;;5034969;28;20721;-68
2022/04/20 06:58:58;;;;;;;0.40;0.20;;;10.60;90.30;;;;;;5034151;28;20401;-68
2022/04/20 07:01:24;;;;;;;0.50;0.50;;;10.70;90.30;;;;;;5034116;28;20414;-68
2022/04/20 07:03:49;;;;;;;0.70;0.70;;;10.80;88.30;;;;;;5033820;28;20402;-67
2022/04/20 07:06:15;;;;;;;0.40;0.20;;;10.90;86.60;;;;;;5034179;28;20495;-68
2022/04/20 07:08:41;;;;;;;0.40;0.27;;;11.00;82.90;;;;;;5033393;28;20913;-68
2022/04/20 07:11:07;;;;;;;0.70;0.70;;;11.10;80.70;;;;;;5034186;28;20721;-67
2022/04/20 07:13:33;;;;;;;0.40;0.20;;;11.40;74.00;;;;;;5033326;28;20764;-68
2022/04/20 07:15:59;;;;;;;0.40;0.20;;;11.50;72.80;;;;;;5033829;28;20608;-68
2022/04/20 07:18:25;;;;;;;0.40;0.20;;;11.40;78.20;;;;;;5033806;28;20386;-68
2022/04/20 07:20:51;;;;;;;0.40;0.20;;;11.50;71.00;;;;;;5033232;28;20371;-68
2022/04/20 07:23:17;;;;;;;0.40;0.30;;;11.60;67.60;;;;;;5033858;28;20437;-67
2022/04/20 07:25:43;;;;;;;0.40;0.20;;;11.70;70.90;;;;;;5033168;28;20830;-68
2022/04/20 07:28:09;;;;;;;0.40;0.30;;;11.80;65.80;;;;;;5033892;28;20393;-68
2022/04/20 07:30:37;;;;;;;1.90;0.50;;;11.90;67.70;;;;;;5033876;28;20454;-67
2022/04/20 07:33:04;;;;;;;0.40;0.30;;;11.90;64.70;;;;;;5013771;28;20381;-67
2022/04/20 07:35:30;;;;;;;0.40;0.20;;;12.00;65.00;;;;;;5013712;28;20956;-67
2022/04/20 07:37:56;;;;;;;0.90;0.70;;;12.00;65.10;;;;;;5013087;28;20400;-68
2022/04/20 07:40:23;;;;;;;0.40;0.20;;;12.10;64.30;;;;;;5014175;28;20873;-68
2022/04/20 07:42:53;;;;;;;0.40;0.20;;;12.20;64.70;;;;;;5013069;28;20412;-68
2022/04/20 07:45:20;;;;;;;0.40;0.30;;;12.20;62.50;;;;;;5013926;28;20395;-68
2022/04/20 07:47:45;;;;;;;0.40;0.20;;;12.30;64.20;;;;;;5013937;28;20883;-68
2022/04/20 07:50:24;;;;;;;1.50;0.80;;;12.30;68.00;;;;;;5013054;28;20424;-67
2022/04/20 07:52:58;;;;;;;0.50;0.50;;;12.20;72.00;;;;;;5013655;28;20466;-68
2022/04/20 07:55:26;;;;;;;0.40;0.30;;;11.80;76.30;;;;;;5012535;28;20412;-67
2022/04/20 07:57:54;;;;;;;0.40;0.30;;;11.70;80.90;;;;;;5013542;28;20385;-67
2022/04/20 08:00:22;;;;;;;0.40;0.30;;;11.70;79.90;;;;;;5013031;28;20423;-67
2022/04/20 08:02:49;;;;;;;0.40;0.30;;;11.70;82.10;;;;;;5013432;28;20405;-67
2022/04/20 08:05:16;;;;;;;0.40;0.20;;;11.90;81.40;;;;;;5012584;28;20483;-68
2022/04/20 08:07:43;;;;;;;0.40;0.25;;;12.00;80.30;;;;;;5013516;28;20404;-68
2022/04/20 08:10:11;;;;;;;0.50;0.50;;;12.00;78.10;;;;;;5012464;28;20385;-68
2022/04/20 08:12:42;;;;;;;0.40;0.30;;;12.00;77.60;;;;;;5013025;28;20400;-67
2022/04/20 08:15:09;;;;;;;0.40;0.30;;;12.10;76.70;;;;;;5012312;28;20401;-67
2022/04/20 08:17:36;;;;;;;0.40;0.20;;;12.00;76.30;;;;;;5013159;28;20389;-67
2022/04/20 08:20:04;;;;;;;0.40;0.30;;;12.00;76.30;;;;;;5011622;28;20476;-68
2022/04/20 08:22:30;;;;;;;0.40;0.20;;;11.90;77.10;;;;;;5012781;28;20528;-67
2022/04/20 08:24:56;;;;;;;0.40;0.30;;;12.00;77.20;;;;;;5011632;28;20484;-67
2022/04/20 08:27:22;;;;;;;0.40;0.20;;;12.20;75.00;;;;;;5012335;28;20381;-67
2022/04/20 08:29:49;;;;;;;0.40;0.30;;;12.50;73.40;;;;;;5013039;28;20388;-67
2022/04/20 08:32:16;;;;;;;3.30;0.50;;;12.60;72.30;;;;;;5024891;28;20387;-67
2022/04/20 08:34:43;;;;;;;0.40;0.20;;;12.70;69.80;;;;;;5032532;28;20384;-67
2022/04/20 08:37:10;;;;;;;1.80;0.70;;;12.70;68.70;;;;;;5032040;28;20407;-70
2022/04/20 08:39:37;;;;;;;0.40;0.20;;;12.90;66.80;;;;;;5032040;28;20414;-68
2022/04/20 08:42:04;;;;;;;0.50;0.50;;;12.90;66.00;;;;;;5032450;28;20561;-68
2022/04/20 08:44:31;;;;;;;0.40;0.20;;;13.00;67.10;;;;;;5046899;28;20375;-68
2022/04/20 08:47:01;;;;;;;0.40;0.30;;;12.90;65.80;;;;;;5032669;28;20391;-68
2022/04/20 08:49:27;;;;;;;0.40;0.30;;;13.00;66.90;;;;;;5030220;28;20380;-69
2022/04/20 08:54:39;;;;;;;0.40;0.20;;;13.10;64.00;;;;;;5031461;28;20450;-69
2022/04/20 08:57:19;;;;;;;0.40;0.20;;;13.20;62.80;;;;;;5032228;28;20379;-68
2022/04/20 08:59:51;;;;;;;0.60;0.60;;;13.30;62.40;;;;;;5032477;28;20445;-67
2022/04/20 09:02:19;;;;;;;0.40;0.30;;;13.30;62.50;;;;;;5031336;28;20910;-67
2022/04/20 09:04:45;;;;;;;0.40;0.20;;;13.30;61.60;;;;;;5029988;28;20428;-68
2022/04/20 09:07:14;;;;;;;0.40;0.20;;;13.30;61.10;;;;;;5032111;28;20464;-67
2022/04/20 09:09:41;;;;;;;4.60;0.90;;;13.40;60.40;;;;;;5030990;28;20470;-70
2022/04/20 09:12:26;;;;;;;0.40;0.30;;;13.50;60.00;;;;;;5031933;28;20394;-68
2022/04/20 09:14:53;;;;;;;0.40;0.30;;;13.50;59.20;;;;;;5031591;28;20398;-69
2022/04/20 09:17:21;;;;;;;0.50;0.50;;;13.50;59.30;;;;;;5031954;28;20393;-69
2022/04/20 09:19:56;;;;;;;0.40;0.20;;;13.60;58.90;;;;;;5029650;28;20446;-69
2022/04/20 09:22:29;;;;;;;0.40;0.30;;;13.60;58.70;;;;;;5031382;28;20420;-67
2022/04/20 09:25:11;;;;;;;0.40;0.30;;;13.80;59.00;;;;;;5031042;28;20402;-67
2022/04/20 09:27:39;;;;;;;0.40;0.20;;;13.90;59.00;;;;;;5029683;28;20736;-69
2022/04/20 09:30:15;;;;;;;0.40;0.20;;;13.80;58.30;;;;;;5031274;28;20391;-67
2022/04/20 09:32:43;;;;;;;0.40;0.20;;;14.00;58.20;;;;;;5014809;28;20404;-68
2022/04/20 09:35:12;;;;;;;0.40;0.20;;;13.90;57.50;;;;;;5011578;28;20896;-70
2022/04/20 09:37:39;;;;;;;0.40;0.30;;;13.90;57.50;;;;;;5009964;28;20405;-69
2022/04/20 09:40:11;;;;;;;0.40;0.28;;;14.10;58.10;;;;;;5011307;28;20436;-69
2022/04/20 09:42:38;;;;;;;0.40;0.30;;;14.10;57.60;;;;;;5011747;28;20414;-67
2022/04/20 09:45:06;;;;;;;1.10;1.00;;;14.20;57.80;;;;;;5011027;28;20377;-70
2022/04/20 09:50:27;;;;;;;0.40;0.20;;;14.30;58.40;;;;;;5011575;28;20523;-67
2022/04/20 09:52:55;;;;;;;0.70;0.70;;;14.50;57.60;;;;;;5010794;28;20434;-69
2022/04/20 09:55:34;;;;;;;0.40;0.20;;;14.50;57.20;;;;;;5011412;28;20854;-70
2022/04/20 09:58:20;;;;;;;0.70;0.70;;;14.50;57.00;;;;;;5010407;28;20456;-67
2022/04/20 10:00:51;;;;;;;0.40;0.20;;;14.60;56.90;;;;;;5011409;28;20385;-67
2022/04/20 10:03:26;;;;;;;0.40;0.30;;;14.60;56.70;;;;;;5011524;28;20501;-67
2022/04/20 10:05:53;;;;;;;0.40;0.20;;;14.60;57.10;;;;;;5010668;28;20385;-68
2022/04/20 10:08:20;;;;;;;0.40;0.20;;;14.70;56.80;;;;;;5011593;28;20402;-67
2022/04/20 10:10:52;;;;;;;0.40;0.20;;;14.80;58.40;;;;;;5011319;28;20385;-67
2022/04/20 10:13:19;;;;;;;0.40;0.30;;;14.90;58.20;;;;;;5010848;28;20381;-68
2022/04/20 10:18:33;;;;;;;0.50;0.50;;;15.30;57.00;;;;;;5010988;28;20853;-67
2022/04/20 10:21:02;;;;;;;0.40;0.20;;;15.30;56.10;;;;;;5010538;28;20396;-67
2022/04/20 10:23:32;;;;;;;0.40;0.30;;;15.20;55.30;;;;;;5011290;28;20381;-68
2022/04/20 10:25:59;;;;;;;0.40;0.20;;;15.50;57.70;;;;;;5011080;28;20464;-67
2022/04/20 10:28:44;;;;;;;1.00;0.90;;;15.80;58.20;;;;;;5010840;28;20408;-68
2022/04/20 10:31:19;;;;;;;0.40;0.20;;;15.80;56.20;;;;;;5010186;28;20466;-68
2022/04/20 10:33:46;;;;;;;0.50;0.40;;;15.90;55.50;;;;;;5010818;28;20471;-67
2022/04/20 10:36:15;;;;;;;0.40;0.30;;;16.00;55.60;;;;;;5010159;28;20746;-68
2022/04/20 10:38:43;;;;;;;0.40;0.20;;;16.00;55.90;;;;;;5010689;28;20400;-68
2022/04/20 10:41:17;;;;;;;0.40;0.20;;;15.60;55.60;;;;;;5010127;28;20424;-68
2022/04/20 10:43:44;;;;;;;0.40;0.30;;;16.00;57.10;;;;;;5011224;28;20397;-68
2022/04/20 10:46:11;;;;;;;0.40;0.30;;;16.10;53.70;;;;;;5010439;28;20411;-69
2022/04/20 10:48:48;;;;;;;0.40;0.25;;;15.90;53.80;;;;;;5010838;28;20388;-68
2022/04/20 10:51:39;;;;;;;0.40;0.30;;;16.00;53.10;;;;;;5008984;28;20900;-70
2022/04/20 10:54:26;;;;;;;0.40;0.20;;;16.10;53.10;;;;;;5010813;28;20448;-67
2022/04/20 10:57:01;;;;;;;0.40;0.30;;;16.20;52.60;;;;;;5010764;28;20421;-68
2022/04/20 10:59:30;;;;;;;0.40;0.30;;;16.20;51.80;;;;;;5010071;28;20481;-68
2022/04/20 11:01:59;;;;;;;0.50;0.50;;;16.50;53.50;;;;;;5010371;28;20893;-68
2022/04/20 11:04:45;;;;;;;0.40;0.20;;;16.60;52.40;;;;;;5009789;28;20733;-69
2022/04/20 11:07:15;;;;;;;0.40;0.30;;;16.60;51.00;;;;;;5010977;28;20408;-68
2022/04/20 11:09:48;;;;;;;0.40;0.20;;;16.70;51.70;;;;;;5010286;28;20376;-69
2022/04/20 11:21:04;;;;;;;0.40;0.20;;;17.90;51.60;;;;;;5010323;28;20730;-68
2022/04/20 11:24:06;;;;;;;0.40;0.20;;;18.20;51.10;;;;;;5010224;28;20389;-69
2022/04/20 11:26:54;;;;;;;0.40;0.30;;;18.00;50.50;;;;;;5008578;28;20781;-69
2022/04/20 11:29:24;;;;;;;0.40;0.30;;;18.20;48.20;;;;;;5013602;28;20404;-68
2022/04/20 11:31:55;;;;;;;0.40;0.30;;;18.90;48.70;;;;;;5022050;28;20408;-68
2022/04/20 11:34:21;;;;;;;0.40;0.20;;;19.70;51.00;;;;;;5016747;28;20474;-68
2022/04/20 11:36:53;;;;;;;0.40;0.20;;;20.40;46.50;;;;;;5012312;28;20514;-69
2022/04/20 11:39:21;;;;;;;0.40;0.30;;;19.50;46.90;;;;;;5013389;28;20499;-68
2022/04/20 11:41:55;;;;;;;0.80;0.60;;;20.20;45.70;;;;;;5012847;28;20841;-69
2022/04/20 11:44:29;;;;;;;0.40;0.20;;;21.20;43.40;;;;;;5013766;28;20417;-68
2022/04/20 11:47:01;;;;;;;0.40;0.20;;;21.50;41.40;;;;;;5011288;28;20762;-70
2022/04/20 11:49:33;;;;;;;0.40;0.28;;;20.10;40.50;;;;;;5013537;28;20380;-68
2022/04/20 11:51:59;;;;;;;0.40;0.20;;;20.60;41.10;;;;;;5012821;28;20468;-69
2022/04/20 11:54:30;;;;;;;0.40;0.22;;;20.40;42.70;;;;;;5013648;28;20388;-69
2022/04/20 11:56:56;;;;;;;0.40;0.30;;;21.00;42.90;;;;;;5012604;28;20385;-69
2022/04/20 11:59:24;;;;;;;0.40;0.30;;;21.30;43.80;;;;;;5013279;28;20417;-69
2022/04/20 12:01:50;;;;;;;0.40;0.30;;;21.70;44.70;;;;;;5012375;28;20967;-70
2022/04/20 12:04:21;;;;;;;0.40;0.30;;;21.30;41.60;;;;;;5013599;28;20438;-67
2022/04/20 12:06:55;;;;;;;0.40;0.20;;;21.20;42.00;;;;;;5013528;28;20450;-69
2022/04/20 12:09:24;;;;;;;0.40;0.30;;;21.40;40.10;;;;;;5013548;28;20384;-67
2022/04/20 12:11:54;;;;;;;0.40;0.30;;;22.00;41.10;;;;;;5013493;28;20400;-68
2022/04/20 12:14:20;;;;;;;0.40;0.20;;;21.20;39.70;;;;;;5013232;28;20389;-68
2022/04/20 12:16:47;;;;;;;0.40;0.20;;;20.80;41.10;;;;;;5013402;28;20381;-69
2022/04/20 12:19:14;;;;;;;0.40;0.30;;;22.30;39.00;;;;;;5027404;28;20802;-68
2022/04/20 12:21:42;;;;;;;0.40;0.30;;;22.30;38.00;;;;;;5012742;28;20408;-69
2022/04/20 12:24:22;;;;;;;0.40;0.20;;;22.70;37.50;;;;;;5010962;28;20440;-69
2022/04/20 12:26:50;;;;;;;1.20;1.10;;;21.50;36.80;;;;;;5012492;28;20403;-68
2022/04/20 12:29:19;;;;;;;0.40;0.20;;;20.70;41.90;;;;;;5011799;28;20754;-68
2022/04/20 12:31:49;;;;;;;0.40;0.20;;;21.80;43.10;;;;;;5012890;28;20388;-68
2022/04/20 12:34:19;;;;;;;0.40;0.30;;;22.10;38.80;;;;;;5011860;28;20400;-69
2022/04/20 12:37:14;;;;;;;0.40;0.20;;;21.90;37.00;;;;;;5011631;28;20797;-68
2022/04/20 12:39:44;;;;;;;0.40;0.20;;;21.60;41.10;;;;;;5007776;28;20508;-68
2022/04/20 12:42:11;;;;;;;0.40;0.20;;;21.80;39.30;;;;;;5012667;28;20420;-68
2022/04/20 12:44:39;;;;;;;0.40;0.30;;;22.30;36.70;;;;;;5011693;28;20392;-68
2022/04/20 12:47:10;;;;;;;0.40;0.20;;;22.60;39.80;;;;;;5012340;28;20405;-68
2022/04/20 12:49:35;;;;;;;0.40;0.20;;;21.00;38.40;;;;;;5011678;28;20415;-68
2022/04/20 12:52:28;;;;;;;0.40;0.20;;;20.80;38.80;;;;;;5011160;28;20399;-68
2022/04/20 12:55:16;;;;;;;0.40;0.20;;;22.40;37.60;;;;;;5003063;28;20428;-67
2022/04/20 13:03:37;;;;;;;0.40;0.20;;;22.10;38.90;;;;;;5011743;28;20813;-68
2022/04/20 13:06:10;;;;;;;0.40;0.30;;;22.20;39.60;;;;;;5012127;28;20380;-67
2022/04/20 13:08:38;;;;;;;0.40;0.20;;;22.10;38.30;;;;;;5011016;28;20881;-67
2022/04/20 13:11:04;;;;;;;0.40;0.30;;;22.20;38.40;;;;;;5012376;28;20733;-67
2022/04/20 13:13:31;;;;;;;0.40;0.20;;;22.10;37.00;;;;;;5012144;28;20395;-68
2022/04/20 13:15:57;;;;;;;0.40;0.30;;;22.10;39.60;;;;;;5010336;28;20401;-68
2022/04/20 13:18:23;;;;;;;0.40;0.20;;;21.80;39.00;;;;;;5012147;28;20411;-68
2022/04/20 13:20:49;;;;;;;0.60;0.60;;;22.10;39.10;;;;;;5011290;28;20415;-68
2022/04/20 13:23:15;;;;;;;0.40;0.30;;;21.90;39.20;;;;;;5011874;28;20396;-68
2022/04/20 13:28:26;;;;;;;0.50;0.40;;;21.70;36.70;;;;;;5011646;28;20785;-70
2022/04/20 13:30:52;;;;;;;0.40;0.30;;;20.60;37.30;;;;;;5012216;28;20393;-68
2022/04/20 13:33:18;;;;;;;0.40;0.20;;;20.60;39.40;;;;;;5031514;28;20728;-68